sensor_id;sensor_type;location;lat;lon;timestamp;P1;durP1;ratioP1;P2;durP2;ratioP2
9848;SDS011;4963;51.444;6.528;2022-11-10T00:00:54;13.00;;;2.63;;
9848;SDS011;4963;51.444;6.528;2022-11-10T00:03:21;7.97;;;3.27;;
9848;SDS011;4963;51.444;6.528;2022-11-10T00:05:48;9.50;;;2.97;;
9848;SDS011;4963;51.444;6.528;2022-11-10T00:08:15;7.70;;;2.70;;
9848;SDS011;4963;51.444;6.528;2022-11-10T00:10:42;7.37;;;2.73;;
9848;SDS011;4963;51.444;6.528;2022-11-10T00:13:27;10.23;;;3.00;;
9848;SDS011;4963;51.444;6.528;2022-11-10T00:15:57;6.87;;;2.30;;
9848;SDS011;4963;51.444;6.528;2022-11-10T00:18:42;6.37;;;2.40;;
9848;SDS011;4963;51.444;6.528;2022-11-10T00:21:09;5.03;;;2.40;;
9848;SDS011;4963;51.444;6.528;2022-11-10T00:23:37;11.17;;;3.17;;
9848;SDS011;4963;51.444;6.528;2022-11-10T00:26:09;7.50;;;2.40;;
9848;SDS011;4963;51.444;6.528;2022-11-10T00:28:39;10.90;;;3.10;;
9848;SDS011;4963;51.444;6.528;2022-11-10T00:31:06;7.97;;;3.30;;
9848;SDS011;4963;51.444;6.528;2022-11-10T00:33:34;7.37;;;2.73;;
9848;SDS011;4963;51.444;6.528;2022-11-10T00:36:02;10.17;;;3.00;;
9848;SDS011;4963;51.444;6.528;2022-11-10T00:38:29;6.40;;;2.70;;
9848;SDS011;4963;51.444;6.528;2022-11-10T00:40:56;8.77;;;3.00;;
9848;SDS011;4963;51.444;6.528;2022-11-10T00:43:24;7.47;;;2.47;;
9848;SDS011;4963;51.444;6.528;2022-11-10T00:45:52;6.50;;;2.80;;
9848;SDS011;4963;51.444;6.528;2022-11-10T00:48:19;11.87;;;3.17;;
9848;SDS011;4963;51.444;6.528;2022-11-10T00:50:46;7.93;;;2.73;;
9848;SDS011;4963;51.444;6.528;2022-11-10T00:53:12;7.83;;;2.73;;
9848;SDS011;4963;51.444;6.528;2022-11-10T00:55:39;11.53;;;3.40;;
9848;SDS011;4963;51.444;6.528;2022-11-10T00:58:07;6.50;;;2.93;;
9848;SDS011;4963;51.444;6.528;2022-11-10T01:00:33;7.60;;;2.87;;
9848;SDS011;4963;51.444;6.528;2022-11-10T01:03:02;8.80;;;2.67;;
9848;SDS011;4963;51.444;6.528;2022-11-10T01:05:28;8.70;;;3.10;;
9848;SDS011;4963;51.444;6.528;2022-11-10T01:07:56;7.37;;;2.70;;
9848;SDS011;4963;51.444;6.528;2022-11-10T01:10:23;10.53;;;2.83;;
9848;SDS011;4963;51.444;6.528;2022-11-10T01:12:50;9.30;;;3.40;;
9848;SDS011;4963;51.444;6.528;2022-11-10T01:15:17;5.83;;;2.80;;
9848;SDS011;4963;51.444;6.528;2022-11-10T01:17:44;9.97;;;3.40;;
9848;SDS011;4963;51.444;6.528;2022-11-10T01:20:12;8.63;;;3.23;;
9848;SDS011;4963;51.444;6.528;2022-11-10T01:22:39;8.67;;;2.80;;
9848;SDS011;4963;51.444;6.528;2022-11-10T01:25:06;7.37;;;2.67;;
9848;SDS011;4963;51.444;6.528;2022-11-10T01:27:34;7.57;;;3.03;;
9848;SDS011;4963;51.444;6.528;2022-11-10T01:30:01;8.87;;;2.87;;
9848;SDS011;4963;51.444;6.528;2022-11-10T01:32:27;6.40;;;2.60;;
9848;SDS011;4963;51.444;6.528;2022-11-10T01:34:54;9.03;;;3.03;;
9848;SDS011;4963;51.444;6.528;2022-11-10T01:37:23;12.37;;;3.37;;
9848;SDS011;4963;51.444;6.528;2022-11-10T01:39:50;9.00;;;2.97;;
9848;SDS011;4963;51.444;6.528;2022-11-10T01:42:21;10.20;;;3.13;;
9848;SDS011;4963;51.444;6.528;2022-11-10T01:48:00;8.77;;;3.17;;
9848;SDS011;4963;51.444;6.528;2022-11-10T01:50:31;7.33;;;2.47;;
9848;SDS011;4963;51.444;6.528;2022-11-10T01:53:02;7.33;;;2.53;;
9848;SDS011;4963;51.444;6.528;2022-11-10T01:55:32;9.83;;;2.97;;
9848;SDS011;4963;51.444;6.528;2022-11-10T01:58:00;8.60;;;2.87;;
9848;SDS011;4963;51.444;6.528;2022-11-10T02:00:28;9.33;;;3.30;;
9848;SDS011;4963;51.444;6.528;2022-11-10T02:02:57;8.40;;;2.73;;
9848;SDS011;4963;51.444;6.528;2022-11-10T02:05:27;6.47;;;2.70;;
9848;SDS011;4963;51.444;6.528;2022-11-10T02:07:54;9.03;;;3.30;;
9848;SDS011;4963;51.444;6.528;2022-11-10T02:10:23;9.77;;;2.53;;
9848;SDS011;4963;51.444;6.528;2022-11-10T02:12:49;12.57;;;2.67;;
9848;SDS011;4963;51.444;6.528;2022-11-10T02:15:17;9.03;;;2.63;;
9848;SDS011;4963;51.444;6.528;2022-11-10T02:17:44;8.40;;;3.10;;
9848;SDS011;4963;51.444;6.528;2022-11-10T02:20:14;10.13;;;2.80;;
9848;SDS011;4963;51.444;6.528;2022-11-10T02:22:44;12.20;;;3.23;;
9848;SDS011;4963;51.444;6.528;2022-11-10T02:25:11;7.87;;;2.70;;
9848;SDS011;4963;51.444;6.528;2022-11-10T02:27:41;10.90;;;3.17;;
9848;SDS011;4963;51.444;6.528;2022-11-10T02:30:08;7.83;;;2.57;;
9848;SDS011;4963;51.444;6.528;2022-11-10T02:32:36;7.93;;;2.50;;
9848;SDS011;4963;51.444;6.528;2022-11-10T02:35:03;15.47;;;3.00;;
9848;SDS011;4963;51.444;6.528;2022-11-10T02:37:31;9.30;;;2.50;;
9848;SDS011;4963;51.444;6.528;2022-11-10T02:39:59;7.97;;;2.97;;
9848;SDS011;4963;51.444;6.528;2022-11-10T02:42:26;7.50;;;2.50;;
9848;SDS011;4963;51.444;6.528;2022-11-10T02:44:52;10.63;;;3.37;;
9848;SDS011;4963;51.444;6.528;2022-11-10T02:47:20;10.37;;;3.10;;
9848;SDS011;4963;51.444;6.528;2022-11-10T02:49:47;8.00;;;2.43;;
9848;SDS011;4963;51.444;6.528;2022-11-10T02:52:14;9.47;;;3.03;;
9848;SDS011;4963;51.444;6.528;2022-11-10T02:54:41;10.90;;;3.13;;
9848;SDS011;4963;51.444;6.528;2022-11-10T02:57:09;8.80;;;2.50;;
9848;SDS011;4963;51.444;6.528;2022-11-10T02:59:35;16.57;;;3.23;;
9848;SDS011;4963;51.444;6.528;2022-11-10T03:02:02;7.00;;;3.10;;
9848;SDS011;4963;51.444;6.528;2022-11-10T03:04:29;8.67;;;2.90;;
9848;SDS011;4963;51.444;6.528;2022-11-10T03:06:56;7.20;;;2.97;;
9848;SDS011;4963;51.444;6.528;2022-11-10T03:09:23;10.70;;;3.23;;
9848;SDS011;4963;51.444;6.528;2022-11-10T03:11:49;7.53;;;3.00;;
9848;SDS011;4963;51.444;6.528;2022-11-10T03:14:17;10.57;;;2.77;;
9848;SDS011;4963;51.444;6.528;2022-11-10T03:16:44;12.93;;;3.20;;
9848;SDS011;4963;51.444;6.528;2022-11-10T03:19:11;9.87;;;2.97;;
9848;SDS011;4963;51.444;6.528;2022-11-10T03:21:38;10.83;;;2.87;;
9848;SDS011;4963;51.444;6.528;2022-11-10T03:24:04;11.23;;;3.37;;
9848;SDS011;4963;51.444;6.528;2022-11-10T03:26:31;9.80;;;3.33;;
9848;SDS011;4963;51.444;6.528;2022-11-10T03:28:58;17.40;;;3.67;;
9848;SDS011;4963;51.444;6.528;2022-11-10T03:31:26;7.17;;;2.90;;
9848;SDS011;4963;51.444;6.528;2022-11-10T03:33:53;11.40;;;3.23;;
9848;SDS011;4963;51.444;6.528;2022-11-10T03:36:20;10.23;;;2.70;;
9848;SDS011;4963;51.444;6.528;2022-11-10T03:38:47;10.77;;;3.00;;
9848;SDS011;4963;51.444;6.528;2022-11-10T03:41:13;11.73;;;3.03;;
9848;SDS011;4963;51.444;6.528;2022-11-10T03:43:40;9.37;;;2.70;;
9848;SDS011;4963;51.444;6.528;2022-11-10T03:46:07;12.27;;;3.10;;
9848;SDS011;4963;51.444;6.528;2022-11-10T03:48:36;10.20;;;3.37;;
9848;SDS011;4963;51.444;6.528;2022-11-10T03:51:02;9.97;;;3.63;;
9848;SDS011;4963;51.444;6.528;2022-11-10T03:53:29;14.47;;;3.13;;
9848;SDS011;4963;51.444;6.528;2022-11-10T03:55:58;7.90;;;2.60;;
9848;SDS011;4963;51.444;6.528;2022-11-10T03:58:25;6.90;;;2.67;;
9848;SDS011;4963;51.444;6.528;2022-11-10T04:00:52;10.70;;;3.00;;
9848;SDS011;4963;51.444;6.528;2022-11-10T04:03:20;10.47;;;2.90;;
9848;SDS011;4963;51.444;6.528;2022-11-10T04:05:48;9.97;;;2.90;;
9848;SDS011;4963;51.444;6.528;2022-11-10T04:08:32;10.80;;;3.43;;
9848;SDS011;4963;51.444;6.528;2022-11-10T04:11:17;13.20;;;3.17;;
9848;SDS011;4963;51.444;6.528;2022-11-10T04:13:58;9.83;;;3.03;;
9848;SDS011;4963;51.444;6.528;2022-11-10T04:16:42;6.93;;;2.80;;
9848;SDS011;4963;51.444;6.528;2022-11-10T04:19:09;12.27;;;3.40;;
9848;SDS011;4963;51.444;6.528;2022-11-10T04:21:37;8.70;;;2.77;;
9848;SDS011;4963;51.444;6.528;2022-11-10T04:24:04;11.80;;;3.43;;
9848;SDS011;4963;51.444;6.528;2022-11-10T04:26:32;7.40;;;2.80;;
9848;SDS011;4963;51.444;6.528;2022-11-10T04:29:02;10.43;;;3.03;;
9848;SDS011;4963;51.444;6.528;2022-11-10T04:31:31;14.17;;;3.53;;
9848;SDS011;4963;51.444;6.528;2022-11-10T04:34:01;15.20;;;3.40;;
9848;SDS011;4963;51.444;6.528;2022-11-10T04:36:29;10.60;;;2.97;;
9848;SDS011;4963;51.444;6.528;2022-11-10T04:38:58;9.43;;;3.03;;
9848;SDS011;4963;51.444;6.528;2022-11-10T04:41:26;9.53;;;2.60;;
9848;SDS011;4963;51.444;6.528;2022-11-10T04:43:54;6.93;;;2.63;;
9848;SDS011;4963;51.444;6.528;2022-11-10T04:46:23;5.67;;;2.33;;
9848;SDS011;4963;51.444;6.528;2022-11-10T04:48:51;12.17;;;3.53;;
9848;SDS011;4963;51.444;6.528;2022-11-10T04:51:19;7.77;;;2.30;;
9848;SDS011;4963;51.444;6.528;2022-11-10T04:53:47;14.27;;;3.27;;
9848;SDS011;4963;51.444;6.528;2022-11-10T04:56:15;8.30;;;2.83;;
9848;SDS011;4963;51.444;6.528;2022-11-10T04:58:43;13.30;;;3.37;;
9848;SDS011;4963;51.444;6.528;2022-11-10T05:01:10;9.67;;;3.10;;
9848;SDS011;4963;51.444;6.528;2022-11-10T05:03:37;9.43;;;2.63;;
9848;SDS011;4963;51.444;6.528;2022-11-10T05:06:05;9.37;;;3.20;;
9848;SDS011;4963;51.444;6.528;2022-11-10T05:08:32;9.53;;;3.10;;
9848;SDS011;4963;51.444;6.528;2022-11-10T05:10:59;10.17;;;2.87;;
9848;SDS011;4963;51.444;6.528;2022-11-10T05:13:27;12.30;;;2.80;;
9848;SDS011;4963;51.444;6.528;2022-11-10T05:15:54;8.30;;;2.90;;
9848;SDS011;4963;51.444;6.528;2022-11-10T05:18:21;9.90;;;2.97;;
9848;SDS011;4963;51.444;6.528;2022-11-10T05:20:48;13.70;;;3.37;;
9848;SDS011;4963;51.444;6.528;2022-11-10T05:23:15;11.23;;;3.67;;
9848;SDS011;4963;51.444;6.528;2022-11-10T05:26:00;12.90;;;2.97;;
9848;SDS011;4963;51.444;6.528;2022-11-10T05:28:28;9.63;;;2.90;;
9848;SDS011;4963;51.444;6.528;2022-11-10T05:30:54;11.57;;;3.10;;
9848;SDS011;4963;51.444;6.528;2022-11-10T05:33:21;14.37;;;3.37;;
9848;SDS011;4963;51.444;6.528;2022-11-10T05:35:48;14.37;;;3.83;;
9848;SDS011;4963;51.444;6.528;2022-11-10T05:38:16;10.07;;;2.70;;
9848;SDS011;4963;51.444;6.528;2022-11-10T05:40:43;12.10;;;3.83;;
9848;SDS011;4963;51.444;6.528;2022-11-10T05:43:10;11.00;;;3.00;;
9848;SDS011;4963;51.444;6.528;2022-11-10T05:45:38;13.87;;;3.13;;
9848;SDS011;4963;51.444;6.528;2022-11-10T05:48:05;15.90;;;3.63;;
9848;SDS011;4963;51.444;6.528;2022-11-10T05:50:32;11.57;;;2.70;;
9848;SDS011;4963;51.444;6.528;2022-11-10T05:52:58;9.50;;;3.07;;
9848;SDS011;4963;51.444;6.528;2022-11-10T05:55:26;9.90;;;2.70;;
9848;SDS011;4963;51.444;6.528;2022-11-10T05:57:54;13.00;;;3.20;;
9848;SDS011;4963;51.444;6.528;2022-11-10T06:00:23;9.17;;;3.00;;
9848;SDS011;4963;51.444;6.528;2022-11-10T06:03:02;13.10;;;3.00;;
9848;SDS011;4963;51.444;6.528;2022-11-10T06:05:31;11.67;;;2.80;;
9848;SDS011;4963;51.444;6.528;2022-11-10T06:07:59;13.63;;;3.47;;
9848;SDS011;4963;51.444;6.528;2022-11-10T06:10:26;11.97;;;3.83;;
9848;SDS011;4963;51.444;6.528;2022-11-10T06:12:53;13.03;;;3.57;;
9848;SDS011;4963;51.444;6.528;2022-11-10T06:15:20;14.77;;;3.50;;
9848;SDS011;4963;51.444;6.528;2022-11-10T06:17:47;9.47;;;3.40;;
9848;SDS011;4963;51.444;6.528;2022-11-10T06:20:16;16.83;;;3.57;;
9848;SDS011;4963;51.444;6.528;2022-11-10T06:22:43;12.87;;;3.60;;
9848;SDS011;4963;51.444;6.528;2022-11-10T06:25:22;12.40;;;3.67;;
9848;SDS011;4963;51.444;6.528;2022-11-10T06:27:49;12.17;;;2.87;;
9848;SDS011;4963;51.444;6.528;2022-11-10T06:30:16;11.53;;;3.27;;
9848;SDS011;4963;51.444;6.528;2022-11-10T06:32:43;10.40;;;3.90;;
9848;SDS011;4963;51.444;6.528;2022-11-10T06:35:10;10.17;;;2.70;;
9848;SDS011;4963;51.444;6.528;2022-11-10T06:37:38;13.10;;;2.90;;
9848;SDS011;4963;51.444;6.528;2022-11-10T06:40:05;10.70;;;2.83;;
9848;SDS011;4963;51.444;6.528;2022-11-10T06:42:33;13.37;;;2.90;;
9848;SDS011;4963;51.444;6.528;2022-11-10T06:45:00;10.10;;;3.17;;
9848;SDS011;4963;51.444;6.528;2022-11-10T06:47:27;13.17;;;2.80;;
9848;SDS011;4963;51.444;6.528;2022-11-10T06:49:54;9.07;;;2.27;;
9848;SDS011;4963;51.444;6.528;2022-11-10T06:52:20;14.97;;;3.20;;
9848;SDS011;4963;51.444;6.528;2022-11-10T06:54:49;11.30;;;3.10;;
9848;SDS011;4963;51.444;6.528;2022-11-10T06:57:15;11.20;;;2.93;;
9848;SDS011;4963;51.444;6.528;2022-11-10T06:59:42;11.83;;;3.27;;
9848;SDS011;4963;51.444;6.528;2022-11-10T07:02:09;11.87;;;3.60;;
9848;SDS011;4963;51.444;6.528;2022-11-10T07:04:39;11.77;;;2.83;;
9848;SDS011;4963;51.444;6.528;2022-11-10T07:07:06;8.20;;;3.27;;
9848;SDS011;4963;51.444;6.528;2022-11-10T07:09:33;7.77;;;2.77;;
9848;SDS011;4963;51.444;6.528;2022-11-10T07:12:01;14.53;;;3.60;;
9848;SDS011;4963;51.444;6.528;2022-11-10T07:14:28;7.70;;;2.73;;
9848;SDS011;4963;51.444;6.528;2022-11-10T07:16:55;14.03;;;3.40;;
9848;SDS011;4963;51.444;6.528;2022-11-10T07:19:22;15.10;;;3.87;;
9848;SDS011;4963;51.444;6.528;2022-11-10T07:21:48;7.57;;;2.77;;
9848;SDS011;4963;51.444;6.528;2022-11-10T07:24:15;8.77;;;3.00;;
9848;SDS011;4963;51.444;6.528;2022-11-10T07:26:42;17.33;;;3.40;;
9848;SDS011;4963;51.444;6.528;2022-11-10T07:29:10;13.53;;;3.23;;
9848;SDS011;4963;51.444;6.528;2022-11-10T07:31:37;9.97;;;3.37;;
9848;SDS011;4963;51.444;6.528;2022-11-10T07:34:04;9.83;;;3.13;;
9848;SDS011;4963;51.444;6.528;2022-11-10T07:36:31;14.70;;;3.10;;
9848;SDS011;4963;51.444;6.528;2022-11-10T07:38:57;11.90;;;2.90;;
9848;SDS011;4963;51.444;6.528;2022-11-10T07:41:24;12.83;;;3.07;;
9848;SDS011;4963;51.444;6.528;2022-11-10T07:43:51;13.53;;;3.00;;
9848;SDS011;4963;51.444;6.528;2022-11-10T07:46:19;12.67;;;3.00;;
9848;SDS011;4963;51.444;6.528;2022-11-10T07:48:46;12.97;;;3.37;;
9848;SDS011;4963;51.444;6.528;2022-11-10T07:51:13;11.50;;;3.00;;
9848;SDS011;4963;51.444;6.528;2022-11-10T07:53:39;11.17;;;3.23;;
9848;SDS011;4963;51.444;6.528;2022-11-10T07:56:07;10.00;;;3.07;;
9848;SDS011;4963;51.444;6.528;2022-11-10T07:58:34;12.57;;;3.40;;
9848;SDS011;4963;51.444;6.528;2022-11-10T08:01:01;8.10;;;2.93;;
9848;SDS011;4963;51.444;6.528;2022-11-10T08:03:29;7.33;;;2.93;;
9848;SDS011;4963;51.444;6.528;2022-11-10T08:05:56;9.67;;;3.23;;
9848;SDS011;4963;51.444;6.528;2022-11-10T08:08:23;10.57;;;3.27;;
9848;SDS011;4963;51.444;6.528;2022-11-10T08:10:49;12.73;;;3.30;;
9848;SDS011;4963;51.444;6.528;2022-11-10T08:13:16;12.83;;;3.40;;
9848;SDS011;4963;51.444;6.528;2022-11-10T08:15:43;10.43;;;3.20;;
9848;SDS011;4963;51.444;6.528;2022-11-10T08:18:13;14.47;;;3.40;;
9848;SDS011;4963;51.444;6.528;2022-11-10T08:20:43;11.73;;;3.47;;
9848;SDS011;4963;51.444;6.528;2022-11-10T08:23:10;11.30;;;3.20;;
9848;SDS011;4963;51.444;6.528;2022-11-10T08:25:37;18.57;;;3.37;;
9848;SDS011;4963;51.444;6.528;2022-11-10T08:28:05;12.90;;;3.20;;
9848;SDS011;4963;51.444;6.528;2022-11-10T08:30:33;13.53;;;3.23;;
9848;SDS011;4963;51.444;6.528;2022-11-10T08:33:02;11.43;;;3.10;;
9848;SDS011;4963;51.444;6.528;2022-11-10T08:35:30;13.20;;;3.33;;
9848;SDS011;4963;51.444;6.528;2022-11-10T08:38:05;15.17;;;3.27;;
9848;SDS011;4963;51.444;6.528;2022-11-10T08:40:32;10.77;;;2.70;;
9848;SDS011;4963;51.444;6.528;2022-11-10T08:42:59;14.37;;;3.27;;
9848;SDS011;4963;51.444;6.528;2022-11-10T08:45:27;10.23;;;3.27;;
9848;SDS011;4963;51.444;6.528;2022-11-10T08:47:57;9.67;;;3.23;;
9848;SDS011;4963;51.444;6.528;2022-11-10T08:50:25;12.47;;;3.40;;
9848;SDS011;4963;51.444;6.528;2022-11-10T08:52:52;13.40;;;3.30;;
9848;SDS011;4963;51.444;6.528;2022-11-10T08:55:20;10.67;;;3.67;;
9848;SDS011;4963;51.444;6.528;2022-11-10T08:57:47;10.13;;;3.30;;
9848;SDS011;4963;51.444;6.528;2022-11-10T09:00:15;12.20;;;3.30;;
9848;SDS011;4963;51.444;6.528;2022-11-10T09:02:42;14.47;;;3.53;;
9848;SDS011;4963;51.444;6.528;2022-11-10T09:05:09;12.10;;;3.77;;
9848;SDS011;4963;51.444;6.528;2022-11-10T09:07:42;16.20;;;3.70;;
9848;SDS011;4963;51.444;6.528;2022-11-10T09:10:10;10.67;;;2.90;;
9848;SDS011;4963;51.444;6.528;2022-11-10T09:12:38;11.17;;;3.03;;
9848;SDS011;4963;51.444;6.528;2022-11-10T09:15:06;11.13;;;3.40;;
9848;SDS011;4963;51.444;6.528;2022-11-10T09:17:33;10.67;;;3.40;;
9848;SDS011;4963;51.444;6.528;2022-11-10T09:20:00;10.90;;;2.93;;
9848;SDS011;4963;51.444;6.528;2022-11-10T09:22:28;12.33;;;3.27;;
9848;SDS011;4963;51.444;6.528;2022-11-10T09:24:54;11.13;;;3.63;;
9848;SDS011;4963;51.444;6.528;2022-11-10T09:27:21;14.03;;;3.73;;
9848;SDS011;4963;51.444;6.528;2022-11-10T09:29:49;13.53;;;3.20;;
9848;SDS011;4963;51.444;6.528;2022-11-10T09:32:16;12.50;;;4.53;;
9848;SDS011;4963;51.444;6.528;2022-11-10T09:34:43;13.03;;;3.73;;
9848;SDS011;4963;51.444;6.528;2022-11-10T09:37:09;12.23;;;3.77;;
9848;SDS011;4963;51.444;6.528;2022-11-10T09:39:36;10.00;;;3.00;;
9848;SDS011;4963;51.444;6.528;2022-11-10T09:42:03;18.00;;;3.53;;
9848;SDS011;4963;51.444;6.528;2022-11-10T09:44:40;12.77;;;3.10;;
9848;SDS011;4963;51.444;6.528;2022-11-10T09:47:18;18.27;;;3.67;;
9848;SDS011;4963;51.444;6.528;2022-11-10T09:49:50;12.57;;;3.33;;
9848;SDS011;4963;51.444;6.528;2022-11-10T09:52:20;15.50;;;3.40;;
9848;SDS011;4963;51.444;6.528;2022-11-10T09:54:50;6.97;;;2.70;;
9848;SDS011;4963;51.444;6.528;2022-11-10T09:57:22;12.63;;;3.17;;
9848;SDS011;4963;51.444;6.528;2022-11-10T09:59:50;15.73;;;4.10;;
9848;SDS011;4963;51.444;6.528;2022-11-10T10:02:23;11.60;;;3.20;;
9848;SDS011;4963;51.444;6.528;2022-11-10T10:04:57;14.07;;;3.13;;
9848;SDS011;4963;51.444;6.528;2022-11-10T10:07:37;14.90;;;3.37;;
9848;SDS011;4963;51.444;6.528;2022-11-10T10:10:12;10.87;;;3.23;;
9848;SDS011;4963;51.444;6.528;2022-11-10T10:12:47;13.97;;;3.43;;
9848;SDS011;4963;51.444;6.528;2022-11-10T10:15:25;11.93;;;3.40;;
9848;SDS011;4963;51.444;6.528;2022-11-10T10:18:03;14.73;;;3.47;;
9848;SDS011;4963;51.444;6.528;2022-11-10T10:20:43;11.67;;;3.00;;
9848;SDS011;4963;51.444;6.528;2022-11-10T10:23:20;15.77;;;3.73;;
9848;SDS011;4963;51.444;6.528;2022-11-10T10:25:52;11.80;;;2.90;;
9848;SDS011;4963;51.444;6.528;2022-11-10T10:28:22;11.87;;;3.00;;
9848;SDS011;4963;51.444;6.528;2022-11-10T10:30:52;16.63;;;3.90;;
9848;SDS011;4963;51.444;6.528;2022-11-10T10:33:22;9.50;;;2.77;;
9848;SDS011;4963;51.444;6.528;2022-11-10T10:35:49;11.33;;;2.97;;
9848;SDS011;4963;51.444;6.528;2022-11-10T10:38:18;12.83;;;3.37;;
9848;SDS011;4963;51.444;6.528;2022-11-10T10:40:54;10.83;;;3.93;;
9848;SDS011;4963;51.444;6.528;2022-11-10T10:43:25;12.27;;;3.13;;
9848;SDS011;4963;51.444;6.528;2022-11-10T10:46:01;10.30;;;3.10;;
9848;SDS011;4963;51.444;6.528;2022-11-10T10:48:32;14.47;;;2.83;;
9848;SDS011;4963;51.444;6.528;2022-11-10T10:50:59;12.80;;;3.03;;
9848;SDS011;4963;51.444;6.528;2022-11-10T10:53:25;15.63;;;3.20;;
9848;SDS011;4963;51.444;6.528;2022-11-10T10:55:55;11.10;;;2.93;;
9848;SDS011;4963;51.444;6.528;2022-11-10T10:58:25;10.47;;;2.93;;
9848;SDS011;4963;51.444;6.528;2022-11-10T11:00:54;13.87;;;3.37;;
9848;SDS011;4963;51.444;6.528;2022-11-10T11:03:27;11.67;;;3.33;;
9848;SDS011;4963;51.444;6.528;2022-11-10T11:06:00;10.87;;;2.67;;
9848;SDS011;4963;51.444;6.528;2022-11-10T11:08:30;11.83;;;2.67;;
9848;SDS011;4963;51.444;6.528;2022-11-10T11:10:58;10.60;;;2.60;;
9848;SDS011;4963;51.444;6.528;2022-11-10T11:13:33;14.47;;;3.43;;
9848;SDS011;4963;51.444;6.528;2022-11-10T11:16:00;11.73;;;2.93;;
9848;SDS011;4963;51.444;6.528;2022-11-10T11:18:30;11.37;;;3.83;;
9848;SDS011;4963;51.444;6.528;2022-11-10T11:20:59;9.10;;;3.13;;
9848;SDS011;4963;51.444;6.528;2022-11-10T11:26:28;9.87;;;3.00;;
9848;SDS011;4963;51.444;6.528;2022-11-10T11:29:03;9.33;;;2.97;;
9848;SDS011;4963;51.444;6.528;2022-11-10T11:31:40;11.40;;;3.33;;
9848;SDS011;4963;51.444;6.528;2022-11-10T11:34:13;13.40;;;3.30;;
9848;SDS011;4963;51.444;6.528;2022-11-10T11:36:47;12.47;;;2.87;;
9848;SDS011;4963;51.444;6.528;2022-11-10T11:39:28;12.23;;;2.93;;
9848;SDS011;4963;51.444;6.528;2022-11-10T11:42:03;9.27;;;3.27;;
9848;SDS011;4963;51.444;6.528;2022-11-10T11:44:44;13.43;;;2.73;;
9848;SDS011;4963;51.444;6.528;2022-11-10T11:47:25;14.43;;;2.90;;
9848;SDS011;4963;51.444;6.528;2022-11-10T11:52:56;13.00;;;3.10;;
9848;SDS011;4963;51.444;6.528;2022-11-10T11:55:32;10.90;;;2.70;;
9848;SDS011;4963;51.444;6.528;2022-11-10T11:58:21;11.10;;;2.90;;
9848;SDS011;4963;51.444;6.528;2022-11-10T12:00:58;10.67;;;2.87;;
9848;SDS011;4963;51.444;6.528;2022-11-10T12:03:41;11.67;;;3.40;;
9848;SDS011;4963;51.444;6.528;2022-11-10T12:06:33;10.73;;;3.00;;
9848;SDS011;4963;51.444;6.528;2022-11-10T12:09:09;9.00;;;2.50;;
9848;SDS011;4963;51.444;6.528;2022-11-10T12:11:50;15.00;;;3.30;;
9848;SDS011;4963;51.444;6.528;2022-11-10T12:14:30;11.53;;;3.30;;
9848;SDS011;4963;51.444;6.528;2022-11-10T12:17:10;9.70;;;2.70;;
9848;SDS011;4963;51.444;6.528;2022-11-10T12:19:46;11.63;;;2.67;;
9848;SDS011;4963;51.444;6.528;2022-11-10T12:22:20;8.03;;;2.23;;
9848;SDS011;4963;51.444;6.528;2022-11-10T12:25:02;7.97;;;2.93;;
9848;SDS011;4963;51.444;6.528;2022-11-10T12:27:39;11.10;;;2.30;;
9848;SDS011;4963;51.444;6.528;2022-11-10T12:30:10;8.57;;;2.10;;
9848;SDS011;4963;51.444;6.528;2022-11-10T12:32:39;9.23;;;2.33;;
9848;SDS011;4963;51.444;6.528;2022-11-10T12:35:10;7.23;;;2.53;;
9848;SDS011;4963;51.444;6.528;2022-11-10T12:37:43;12.47;;;2.43;;
9848;SDS011;4963;51.444;6.528;2022-11-10T12:40:16;5.77;;;2.10;;
9848;SDS011;4963;51.444;6.528;2022-11-10T12:42:45;11.80;;;2.53;;
9848;SDS011;4963;51.444;6.528;2022-11-10T12:45:20;10.13;;;2.53;;
9848;SDS011;4963;51.444;6.528;2022-11-10T12:47:49;6.60;;;2.17;;
9848;SDS011;4963;51.444;6.528;2022-11-10T12:53:10;5.67;;;2.10;;
9848;SDS011;4963;51.444;6.528;2022-11-10T12:55:45;6.90;;;2.80;;
9848;SDS011;4963;51.444;6.528;2022-11-10T12:58:15;8.13;;;2.40;;
9848;SDS011;4963;51.444;6.528;2022-11-10T13:00:43;8.10;;;2.43;;
9848;SDS011;4963;51.444;6.528;2022-11-10T13:03:25;4.90;;;2.07;;
9848;SDS011;4963;51.444;6.528;2022-11-10T13:05:54;6.37;;;2.40;;
9848;SDS011;4963;51.444;6.528;2022-11-10T13:08:23;8.30;;;2.33;;
9848;SDS011;4963;51.444;6.528;2022-11-10T13:10:55;10.13;;;2.23;;
9848;SDS011;4963;51.444;6.528;2022-11-10T13:13:25;7.73;;;2.30;;
9848;SDS011;4963;51.444;6.528;2022-11-10T13:15:53;5.93;;;1.93;;
9848;SDS011;4963;51.444;6.528;2022-11-10T13:18:22;7.13;;;2.23;;
9848;SDS011;4963;51.444;6.528;2022-11-10T13:21:13;6.53;;;2.20;;
9848;SDS011;4963;51.444;6.528;2022-11-10T13:26:50;6.97;;;2.03;;
9848;SDS011;4963;51.444;6.528;2022-11-10T13:29:25;8.27;;;2.20;;
9848;SDS011;4963;51.444;6.528;2022-11-10T13:32:08;11.87;;;2.33;;
9848;SDS011;4963;51.444;6.528;2022-11-10T13:34:50;10.07;;;2.43;;
9848;SDS011;4963;51.444;6.528;2022-11-10T13:43:24;5.90;;;2.00;;
9848;SDS011;4963;51.444;6.528;2022-11-10T13:45:59;7.53;;;2.33;;
9848;SDS011;4963;51.444;6.528;2022-11-10T13:48:31;14.87;;;2.53;;
9848;SDS011;4963;51.444;6.528;2022-11-10T13:51:36;9.07;;;2.40;;
9848;SDS011;4963;51.444;6.528;2022-11-10T13:54:12;11.27;;;2.67;;
9848;SDS011;4963;51.444;6.528;2022-11-10T13:57:07;5.87;;;2.10;;
9848;SDS011;4963;51.444;6.528;2022-11-10T13:59:53;9.43;;;2.60;;
9848;SDS011;4963;51.444;6.528;2022-11-10T14:08:23;7.20;;;2.33;;
9848;SDS011;4963;51.444;6.528;2022-11-10T14:10:53;6.97;;;1.80;;
9848;SDS011;4963;51.444;6.528;2022-11-10T14:13:23;4.40;;;1.53;;
9848;SDS011;4963;51.444;6.528;2022-11-10T14:15:59;9.43;;;1.90;;
9848;SDS011;4963;51.444;6.528;2022-11-10T14:18:27;5.80;;;1.80;;
9848;SDS011;4963;51.444;6.528;2022-11-10T14:21:02;11.77;;;2.27;;
9848;SDS011;4963;51.444;6.528;2022-11-10T14:23:30;4.83;;;1.70;;
9848;SDS011;4963;51.444;6.528;2022-11-10T14:26:02;7.10;;;2.20;;
9848;SDS011;4963;51.444;6.528;2022-11-10T14:28:32;7.10;;;2.00;;
9848;SDS011;4963;51.444;6.528;2022-11-10T14:31:02;5.47;;;1.83;;
9848;SDS011;4963;51.444;6.528;2022-11-10T14:33:31;7.33;;;1.60;;
9848;SDS011;4963;51.444;6.528;2022-11-10T14:35:59;5.83;;;1.93;;
9848;SDS011;4963;51.444;6.528;2022-11-10T14:38:27;9.00;;;2.33;;
9848;SDS011;4963;51.444;6.528;2022-11-10T14:40:58;7.07;;;1.93;;
9848;SDS011;4963;51.444;6.528;2022-11-10T14:43:28;6.80;;;1.87;;
9848;SDS011;4963;51.444;6.528;2022-11-10T14:45:56;7.20;;;1.97;;
9848;SDS011;4963;51.444;6.528;2022-11-10T14:48:26;7.90;;;2.50;;
9848;SDS011;4963;51.444;6.528;2022-11-10T14:50:54;4.40;;;1.60;;
9848;SDS011;4963;51.444;6.528;2022-11-10T14:53:28;6.67;;;2.40;;
9848;SDS011;4963;51.444;6.528;2022-11-10T14:55:59;6.70;;;2.07;;
9848;SDS011;4963;51.444;6.528;2022-11-10T14:58:29;9.07;;;2.20;;
9848;SDS011;4963;51.444;6.528;2022-11-10T15:00:58;7.13;;;1.90;;
9848;SDS011;4963;51.444;6.528;2022-11-10T15:03:29;9.60;;;2.20;;
9848;SDS011;4963;51.444;6.528;2022-11-10T15:06:00;8.07;;;2.53;;
9848;SDS011;4963;51.444;6.528;2022-11-10T15:08:28;5.40;;;1.97;;
9848;SDS011;4963;51.444;6.528;2022-11-10T15:10:56;8.53;;;2.37;;
9848;SDS011;4963;51.444;6.528;2022-11-10T15:13:33;6.63;;;2.10;;
9848;SDS011;4963;51.444;6.528;2022-11-10T15:16:21;7.40;;;2.20;;
9848;SDS011;4963;51.444;6.528;2022-11-10T15:18:52;8.30;;;2.00;;
9848;SDS011;4963;51.444;6.528;2022-11-10T15:21:22;11.20;;;2.73;;
9848;SDS011;4963;51.444;6.528;2022-11-10T15:23:54;8.10;;;2.10;;
9848;SDS011;4963;51.444;6.528;2022-11-10T15:26:25;6.90;;;2.00;;
9848;SDS011;4963;51.444;6.528;2022-11-10T15:28:53;4.97;;;1.70;;
9848;SDS011;4963;51.444;6.528;2022-11-10T15:31:21;7.20;;;2.23;;
9848;SDS011;4963;51.444;6.528;2022-11-10T15:33:49;7.27;;;2.07;;
9848;SDS011;4963;51.444;6.528;2022-11-10T15:36:25;7.63;;;2.33;;
9848;SDS011;4963;51.444;6.528;2022-11-10T15:39:03;6.43;;;2.37;;
9848;SDS011;4963;51.444;6.528;2022-11-10T15:41:32;7.13;;;1.77;;
9848;SDS011;4963;51.444;6.528;2022-11-10T15:44:13;9.83;;;2.57;;
9848;SDS011;4963;51.444;6.528;2022-11-10T15:46:41;5.83;;;1.80;;
9848;SDS011;4963;51.444;6.528;2022-11-10T15:49:11;8.87;;;2.30;;
9848;SDS011;4963;51.444;6.528;2022-11-10T15:51:47;9.57;;;1.87;;